Identifiez vous afin de poster une observation
 • Tableaux GEFS   

Tableaux GEFS de Températures 500hPa (°C)

Run GEFS du 19/06/2018 06Z - Choix du run : 00 - 06 - 12 - 18 Sauver tableau : Conserver cette image

Paramètres : [ Temp. 850hPa ] - [ Temp. 500hPa ] - [ Pression ] - [ Précip. ] - [ Temp. 2m ] - [ Z500 ] - [ CAPE ] -
[ Vent+Direction 10m ] - [ Vent 10m ] - [ Vent Rafales 10m ] - [ Vent+Direction 850hPa ] - [ Vent 850hPa ] - [ Iso 0 ] -
Tri des valeurs : [ Par scénario ] - [ Ascendant ] - [ Descendant ]

Localisation : 42.7N 23.3E

DateEch.
2018-06-19 06Z0-13.2-12.8-12.8-12.7-12.7-12.7-12.7-12.7-12.7-12.7-12.7-12.7-12.7-12.6-12.6-12.6-12.5-12.5-12.5-12.3-12.3-12.3
2018-06-19 09Z3-13.1-12.8-12.8-12.7-12.7-12.7-12.7-12.7-12.6-12.6-12.6-12.6-12.6-12.6-12.6-12.6-12.5-12.5-12.5-12.5-12.3-12.2
2018-06-19 12Z6-12.7-12.7-12.7-12.7-12.6-12.6-12.6-12.6-12.6-12.5-12.5-12.3-12.3-12.3-12.3-12.3-12.3-12.2-12.2-12.2-12.2-11.8
2018-06-19 15Z9-12.3-12.2-12.2-12.2-12.2-12.2-12.1-12.1-12-12-12-12-12-11.8-11.8-11.8-11.8-11.8-11.7-11.7-11.7-11.3
2018-06-19 18Z12-12.6-12.6-12.5-12.3-12.3-12.2-12.2-12.2-12.2-12.2-12.2-12.1-12.1-12.1-12.1-12.1-12.1-11.8-11.8-11.8-11.7-11.6
2018-06-19 21Z15-13.1-12.7-12.7-12.7-12.6-12.6-12.6-12.6-12.6-12.5-12.5-12.5-12.5-12.3-12.3-12.3-12.2-12.2-12.2-12.2-12.2-12.2
2018-06-20 00Z18-12.5-12.4-12.3-12.3-12.2-12.2-12.2-12.2-12.2-12.2-12.1-12.1-12.1-12.1-12.1-12-12-11.8-11.7-11.7-11.7-11.5
2018-06-20 03Z21-12.3-12.2-12-12-11.8-11.7-11.7-11.7-11.7-11.6-11.6-11.6-11.6-11.5-11.5-11.5-11.5-11.2-11.2-11.2-11.2-11
2018-06-20 06Z24-12.6-12-12-12-11.7-11.7-11.7-11.7-11.7-11.6-11.6-11.5-11.4-11.3-11.3-11.3-11.2-11.2-11.2-11-10.8-10.8
2018-06-20 09Z27-12.7-12.5-12.3-12.1-12.1-11.7-11.7-11.7-11.7-11.6-11.5-11.5-11.5-11.5-11.4-11.3-11.2-11.2-11.1-11-11-10.8
2018-06-20 12Z30-12.7-12.6-12.2-12-11.8-11.8-11.7-11.5-11.5-11.5-11.4-11.3-11.3-11.3-11.3-11.2-11.2-11.2-11.2-11.2-10.7-10.7
2018-06-20 15Z33-12.7-12.3-11.8-11.7-11.7-11.7-11.7-11.5-11.4-11.3-11.2-11.2-11.2-11.2-11.2-11.1-11.1-11.1-10.8-10.8-10.7-10.3
2018-06-20 18Z36-12.3-12.2-12.2-12.1-12-11.7-11.7-11.7-11.7-11.6-11.5-11.3-11.3-11.3-11.3-11.2-11.2-11.2-10.8-10.8-10.7-10.5
2018-06-20 21Z39-12.3-12.3-12.2-12.2-12.2-12.1-12.1-12.1-12-11.8-11.8-11.7-11.7-11.7-11.7-11.7-11.6-11.5-11.5-11.2-11.2-11.2
2018-06-21 00Z42-12.6-12.6-12.6-12.5-12.5-12.5-12.2-12.2-12.2-12.2-12.2-12.2-12.2-12.2-12-12-11.9-11.8-11.7-11.7-11.7-11.3
2018-06-21 03Z45-13-12.8-12.8-12.7-12.6-12.6-12.6-12.6-12.6-12.5-12.5-12.5-12.3-12.3-12.3-12.3-12.2-12.2-12.2-12.1-12.1-11.7
2018-06-21 06Z48-13.7-13.3-13.2-13.2-13.1-13-13-12.8-12.8-12.7-12.7-12.7-12.7-12.7-12.7-12.6-12.6-12.6-12.6-12.6-12.3-12.2
2018-06-21 09Z51-13.8-13.6-13.5-13.3-13.3-13.3-13.2-13.1-13.1-13.1-13-12.7-12.7-12.7-12.6-12.5-12.5-12.5-12.5-12.4-12.3-12.3
2018-06-21 12Z54-13.5-13.3-13.2-13.2-13.2-13.1-13-12.8-12.7-12.7-12.7-12.7-12.6-12.3-12.3-12.2-12.2-12.1-12.1-12.1-12.1-12
2018-06-21 15Z57-13.5-13.2-13-12.7-12.7-12.7-12.7-12.6-12.6-12.6-12.5-12.3-12.3-12.3-12.2-12.2-12.1-12-12-12-11.8-11.7
2018-06-21 18Z60-13.6-13-13-12.8-12.8-12.7-12.7-12.7-12.7-12.6-12.5-12.3-12.3-12.3-12.2-12.2-12.2-12.2-12.2-12-12-11.8
2018-06-21 21Z63-13.2-13-13-12.7-12.7-12.7-12.6-12.5-12.5-12.5-12.3-12.3-12.3-12.2-12.2-12.1-12.1-12-12-11.9-11.6-11.5
2018-06-22 00Z66-13.3-13.1-13-12.8-12.8-12.8-12.8-12.6-12.6-12.6-12.5-12.5-12.5-12.5-12.3-12.3-12.3-12.2-12.2-12.2-11.8-11.8
2018-06-22 03Z69-13.5-13.2-13.1-12.8-12.8-12.7-12.7-12.7-12.7-12.6-12.5-12.5-12.5-12.3-12.3-12.3-12.2-12.2-12.2-12.1-12-12
2018-06-22 06Z72-13.3-13.3-13.2-13.1-13-13-13-12.8-12.7-12.7-12.7-12.7-12.7-12.7-12.5-12.5-12.2-12.2-12.2-12.1-12.1-12
2018-06-22 09Z75-13-12.8-12.7-12.7-12.7-12.7-12.7-12.7-12.6-12.6-12.5-12.5-12.5-12.3-12.2-12.2-12.2-12.2-12.1-12-12-11.7
2018-06-22 12Z78-12.7-12.7-12.7-12.6-12.5-12.5-12.3-12.3-12.2-12.1-12.1-12.1-12-12-12-12-11.9-11.7-11.7-11.7-11.7-11.6
2018-06-22 15Z81-12.7-12.5-12.3-12.3-12.3-12.2-12.2-12.1-12.1-12.1-12-12-12-12-11.8-11.8-11.8-11.8-11.8-11.6-11.6-11.6
2018-06-22 18Z84-12.2-12.1-12-12-12-11.8-11.8-11.8-11.7-11.7-11.7-11.7-11.6-11.6-11.6-11.6-11.5-11.5-11.4-11.3-11.3-11.2
2018-06-22 21Z87-12.2-12.2-12.2-12.1-12-12-12-12-11.8-11.8-11.7-11.7-11.7-11.7-11.7-11.6-11.5-11.5-11.5-11.2-11.2-11.2
2018-06-23 00Z90-12.7-12.6-12.5-12.2-12-11.8-11.8-11.8-11.8-11.7-11.7-11.7-11.6-11.6-11.6-11.6-11.6-11.5-11.5-11.3-11.3-10.7
2018-06-23 03Z93-12.7-12.7-12.6-12.5-12.2-12.2-12-12-12-11.8-11.8-11.8-11.8-11.7-11.7-11.7-11.7-11.7-11.6-11.6-11.5-11.3
2018-06-23 06Z96-13.2-12.5-12.3-12.3-12.3-12.3-12.2-12.2-12.2-12.2-12.2-12.1-12.1-12.1-12-12-11.8-11.8-11.8-11.6-11.6-11.5
2018-06-23 09Z99-13.7-12.7-12.5-12.5-12.5-12.3-12.3-12.3-12.3-12.3-12.2-12.2-12.1-12.1-12-12-12-11.8-11.7-11.7-11.6-11.5
2018-06-23 12Z102-13.6-13-13-12.3-12.2-12.1-12.1-12.1-12-12-11.9-11.8-11.8-11.8-11.7-11.6-11.5-11.5-11.5-11.3-11.2-11
2018-06-23 15Z105-13.2-13-12.8-12.5-12.3-12.2-12.2-12-12-11.8-11.8-11.7-11.5-11.5-11.5-11.5-11.3-11.2-11.2-11.2-11.2-10.8
2018-06-23 18Z108-13.3-13-12.7-12.3-12.2-12.2-12.2-12.2-12-11.8-11.8-11.8-11.7-11.7-11.7-11.5-11.5-11.5-11.3-11.2-11.1-10.8
2018-06-23 21Z111-13.3-13.1-12.8-12.7-12.3-12.2-12.2-12.2-12.1-12.1-12-12-11.8-11.8-11.7-11.7-11.7-11.6-11.2-11.2-11.1-11.1
2018-06-24 00Z114-13.5-13.2-13.1-13.1-13-12.8-12.7-12.7-12.6-12.5-12.4-12.2-12.2-12.2-12.2-12-11.7-11.7-11.7-11.6-11.5-11.5
2018-06-24 03Z117-14.2-13.7-13.6-13.3-13.1-13-12.8-12.8-12.7-12.7-12.6-12.6-12.6-12.5-12.5-12.2-12-11.7-11.7-11.7-11.6-11.2
2018-06-24 06Z120-14.5-14.2-13.7-13.6-13.6-13.3-13.2-13.1-13.1-13-12.7-12.7-12.5-12.3-12.2-12.1-12.1-12-11.7-11.3-11.2-11.1
2018-06-24 09Z123-15.2-14-13.7-13.7-13.7-13.6-13.2-13.1-13-13-13-12.7-12.7-12.5-12.3-12.2-12-12-11.5-11.3-10.8-10.7
2018-06-24 12Z126-15.6-14-14-13.6-13.4-13.3-13.1-13-12.7-12.7-12.7-12.6-12.6-12.6-12.3-12.2-12.2-11.8-11.7-11.2-10.7-10.3
2018-06-24 15Z129-15.7-14.2-13.3-13.2-13.2-13-13-12.7-12.7-12.7-12.7-12.6-12.5-12.5-12.3-12.2-12.1-11.7-11.6-11.2-10.7-10.1
2018-06-24 18Z132-16.2-14.6-13.5-13.2-13.1-13.1-13-12.8-12.7-12.7-12.7-12.5-12.5-12.2-12.2-12.2-12.2-12.1-12.1-11.2-11.2-10.3
2018-06-24 21Z135-16.7-14.7-13.8-13.7-13.7-13.5-13.5-13.5-13.2-13.2-13.2-12.7-12.7-12.6-12.5-12.5-12.3-12.3-11.8-11.8-11.8-11
2018-06-25 00Z138-16.5-14.7-14.3-14-13.7-13.7-13.6-13.5-13.3-13.2-13.2-13.1-13-13-12.8-12.7-12.5-12.3-12.3-12.3-11.8-11.3
2018-06-25 03Z141-15.8-15.7-14.3-14.2-14.2-13.9-13.9-13.6-13.5-13.2-13.2-13.1-13.1-13.1-12.8-12.8-12.7-12.7-12.7-12.6-12.3-12.1
2018-06-25 06Z144-16.3-16-14.7-14.2-14.1-14.1-13.8-13.7-13.6-13.6-13.3-13.2-13.1-13-13-12.8-12.6-12.6-12.5-12.3-12.3-12.2
2018-06-25 09Z147-16.3-16.1-14.2-14.2-14.1-14-13.8-13.8-13.5-13.3-13.1-12.8-12.8-12.7-12.7-12.7-12.6-12.6-12.3-12.2-12.1-11.8
2018-06-25 12Z150-17.3-16.2-14.1-14-13.7-13.7-13.7-13.6-13.5-13.5-13.3-13.1-13-12.7-12.7-12.5-12.3-12.2-12.2-12-12-11.8
2018-06-25 15Z153-17.3-15.6-14-13.8-13.7-13.6-13.5-13.5-13.3-13.2-13.1-13.1-13-13-12.7-12.6-12.2-12.2-12.2-11.8-11.7-11.7
2018-06-25 18Z156-17.5-14.8-14-13.8-13.8-13.7-13.7-13.3-13.2-13.1-13.1-13.1-13.1-12.8-12.8-12.7-12.3-12.2-11.8-11.8-11.7-11.7
2018-06-25 21Z159-17.6-14.5-14.2-13.8-13.7-13.7-13.6-13.6-13.5-13.2-13.2-13.2-13.1-13-12.7-12.7-12.6-12.5-12.1-12-11.8-11.2
2018-06-26 00Z162-17.6-14.6-14.5-14.2-14.1-14-13.7-13.5-13.5-13.4-13.3-13.3-13.3-13.2-13.2-13.1-12.8-12.7-12.6-12.2-12.2-10.7
2018-06-26 03Z165-17.3-15.5-14.6-14.5-14.2-14.1-14.1-13.7-13.7-13.7-13.6-13.6-13.3-13.2-13.2-13.2-13.1-13-12.6-12.5-12.1-11.1
2018-06-26 06Z168-17-16.2-14.8-14.6-14.2-14.1-13.8-13.8-13.6-13.5-13.5-13.5-13.4-13.2-13.2-13.2-13.2-13-12.6-12.6-12.5-10.7
2018-06-26 09Z171-16.8-16-14.5-14.5-14.3-14.2-14.2-13.7-13.7-13.6-13.3-13.3-13.2-13.2-13.2-13.2-13.1-12.7-12.7-12.6-12.2-10.2
2018-06-26 12Z174-17.1-15.2-14.6-14.3-14.2-14.1-14-13.8-13.6-13.6-13.5-13.5-13.3-13.3-13.2-13.2-13-12.5-12.3-12.3-12.1-10.5
2018-06-26 15Z177-17-15.1-14.8-14.2-14.2-14.1-14-13.7-13.7-13.6-13.6-13.3-13.2-13.2-13.1-12.7-12.6-11.8-11.8-11.8-11.6-10.7
2018-06-26 18Z180-17.5-15.2-14.7-14.3-14.1-14-14-13.7-13.6-13.5-13.3-13.2-13-12.9-12.5-12.3-12.3-12-11.8-11.5-11.5-10.7
2018-06-26 21Z183-17.6-15.3-14.8-14.5-14.3-14.1-13.8-13.8-13.7-13.2-13.2-13.2-12.9-12.8-12.6-12.5-12.5-12.2-11.7-11.2-10.8-10.5
2018-06-27 00Z186-17.3-15.2-15.1-15-14.7-14.3-14.1-13.8-13.7-13.7-13.7-13.3-13.3-13.2-13-12.7-12.2-12.2-12.1-11.6-11-10.6
2018-06-27 03Z189-16.3-15.2-14.6-14.5-14.2-14.1-14.1-13.7-13.7-13.7-13.6-13.6-13.6-13.1-12.8-12.6-12.3-12.3-12.2-11.8-10.8-10.3
2018-06-27 06Z192-15.7-15.5-14.7-14.7-14.6-14.6-14.3-13.8-13.7-13.7-13.5-13.3-13.3-12.8-12.7-12.5-12.5-12.5-12.1-12-10.6-10.2
2018-06-27 12Z198-15.6-15.2-14.2-14.1-14-13.7-13.6-13.5-13.5-13.3-13.2-13.1-12.8-12.8-12.7-12.6-12.5-12.1-10.8-10.6-10.5-10.5
2018-06-27 18Z204-15.2-14.7-14.7-14.1-13.5-13-12.8-12.7-12.7-12.6-12.5-12.5-12.5-12.4-12.2-12-11.8-11.5-10.5-9.8-9.7-9.7
2018-06-28 00Z210-15.1-15-14.3-14.2-13.7-13.2-13.2-13.1-13-12.8-12.7-12.6-12.6-12.4-12.2-12.1-12-11.5-11.5-11.2-11-10.2
2018-06-28 06Z216-16-15.7-15.6-14.7-13.6-13.3-13.3-13.2-13.1-13.1-13-12.8-12.7-12.6-12.6-12.5-12.3-12.2-12.2-11.3-11.2-10.7
2018-06-28 12Z222-16.5-14.6-14.5-14.2-13.3-13.3-13.2-13.2-13.1-12.8-12.7-12.7-12.2-12.1-12-12-11.8-11.7-11.6-11.5-11.1-11
2018-06-28 18Z228-16-13.8-13.7-13.5-13.3-13.2-13.1-13.1-12.7-12.7-12.3-12.2-12.2-11.8-11.8-11.8-11.6-11.5-11.2-10.8-10.2-9.3
2018-06-29 00Z234-15.2-14.5-13.8-13.5-13.5-13.3-13.2-13.2-13.1-12.7-12.2-12.2-12.1-12-11.9-11.6-11.5-11.2-11.1-10.8-9.7-9.5
2018-06-29 06Z240-14.2-14.2-14-14-13.7-13.2-13.2-13-13-12.7-12.7-12.5-12.4-12.2-12-11.7-11.3-10.8-10.8-10.2-8-7.8
2018-06-29 12Z246-14.2-13.7-13.7-13.5-13.1-13.1-12.3-12.2-12.2-12.2-11.8-11.7-11.6-11.2-11.2-10.7-10.6-10.3-10.1-9.8-6.3
2018-06-29 18Z252-13.8-13.7-13.6-13.1-12.9-12.8-12.6-12.3-12.3-12-11.7-11.7-10.8-10.8-10.7-10.6-10.3-10.2-10.2-10-9.7-6.3
2018-06-30 00Z258-13.8-13.7-13.6-12.8-12.7-12.7-12-12-11.2-11.2-11.2-10.7-10.7-10.5-10.5-10.3-10-9.7-9.7-9.5-7.6
2018-06-30 06Z264-13.8-13.8-13.6-13.5-13.2-12.8-12.8-12.7-12.7-12.7-11.7-11.7-11.7-11.7-11.2-10.2-10.1-9.7-9.7-9.2-9.1-8.7
2018-06-30 12Z270-15.7-14.7-13.6-13.2-13.1-12.5-12.3-12.2-12.2-12.2-12-12-11.7-11.2-10.5-10.1-9.7-9.6-9.6-9.2-9
2018-06-30 18Z276-16.7-15.2-13.7-13-12.7-12.6-12.6-12.5-12.1-12.1-12.1-11.8-11.7-11.6-11.5-11-10.3-10.2-10-9.5-9.3-8
2018-07-01 00Z282-18.1-14.7-13.7-13.3-12.7-12.7-12.3-12.3-12.2-12.2-12.1-11.3-11.2-11.2-11-10.7-10.7-10.5-10.1-9.7-7.7
2018-07-01 06Z288-17.6-15.1-14.3-13.5-13.2-13.1-13-13-13-12.5-12.3-11.8-11.5-11.3-11.1-11-10.6-10.6-10.3-10.2-9.7-7.5
2018-07-01 12Z294-16.7-14.7-14.1-13.7-13.5-13.2-12.7-11.8-11.7-11.6-11.2-10.6-10.5-10.2-10.2-10.2-10.1-10.1-9.8-9.7-8.7
2018-07-01 18Z300-16.3-14.5-14.3-14.2-13.3-12.8-12.7-11.8-11.5-11.2-11.2-11-10.6-10.5-10.2-10.1-10.1-10-9.7-9.7-9.6-9.2
2018-07-02 00Z306-14.3-14-13.7-13.3-12.2-12.1-11.6-11.6-11.5-11.3-11.2-10.8-10.7-10.5-10.2-10.2-9.7-9.7-9.6-9-8.7
2018-07-02 06Z312-13.6-13.6-13.5-13.1-12.6-12.3-12.2-12.1-11.7-11.2-10.7-10.7-10.6-10.6-10.6-10.3-10.1-10.1-9.7-9.7-9-8.3
2018-07-02 12Z318-13-12.7-12.6-12.5-12-12-11.5-11.1-11-10.8-10.8-10.7-10.2-10-10-9.7-9.2-9-8.5-8.5-8.2
2018-07-02 18Z324-13-12.7-12.5-12.2-11.8-11.7-11.7-11.3-11.2-11.1-11-10.8-10.7-9.7-9.7-9.5-9.3-9.2-9.1-8.7-7.5-7.2
2018-07-03 00Z330-13.3-12.8-12.7-12.3-11.7-11.5-11.2-11.1-11-11-10.7-10.6-10.2-9.7-9.7-9.5-9.3-8.8-7.8-7.2-7.2
2018-07-03 06Z336-14.5-13.3-13-12.2-12.1-11.7-11.7-11.3-11.2-11.2-11.2-10.7-10.6-10.6-10-9.8-9.6-9.6-9.5-8.5-8-7.7
2018-07-03 12Z342-13.5-13.2-13.1-12.5-12.2-11.8-11.2-11.1-10.8-10.7-10.3-10.2-10-9.7-9.6-9.6-9.2-9-8.2-8-7.3
2018-07-03 18Z348-15.2-13.3-12.5-12.5-12.3-11.8-11.1-10.9-10.7-10.6-10.2-10-9.7-9.7-9.3-9.3-9.1-9.1-8.8-8-7.7-7
2018-07-04 00Z354-15.2-14.1-12.7-11.6-11.5-11-10.8-10.7-10.7-10.6-9.7-9.7-9.7-9.6-9.5-9.2-9-8.6-8.3-8.2-7.2
2018-07-04 06Z360-14.7-13.7-12.7-12.2-11.6-11.1-11.1-11-10.8-10.7-10.6-10.5-10.5-10.2-10.2-10-9.7-9.5-9.1-9-8.6-8
2018-07-04 12Z366-15.7-12.7-12.1-11.5-11.2-11.1-11-10.7-10.7-10.3-10.2-10.2-10.2-9.7-9.7-9.5-9.2-9.2-9.1-8.6-8.2
2018-07-04 18Z372-14-13.2-11.6-11.3-11.3-10.7-10.5-10.5-10.3-10.1-10.1-9.8-9.8-9.7-9.7-9.7-9.6-9.2-9.1-8.7-8.5-8.3
2018-07-05 00Z378-12.7-12.7-11.7-11.5-11.5-11.2-10.7-10.6-10.3-10.2-10.2-10.2-10.1-10-9.6-9.1-9-8.8-8.8-8.7-8.5
2018-07-05 06Z384-12.2-11.7-11.6-11.5-11.5-11.3-10.7-10.7-10.6-10.2-10.2-10.2-10.1-9.7-9.7-9.6-9.1-9.1-9-8.8-8.7-8.2

Retour à la carte

meteociel.fr™ | © 2004 - 2018 | Forums Météo | Prévi Paris | Liens météo | Média - Meteociel | Mentions légales | Contact
En poursuivant votre navigation sur Meteociel, vous acceptez l'utilisation des cookies. Ils assurent le bon fonctionnement de nos services. [ En savoir plus ] [ OK ]